createdAt,value
2023-03-07T00:01:36.094Z,7.38
2023-03-07T00:04:03.932Z,7.39
2023-03-07T00:06:31.188Z,7.43
2023-03-07T00:09:02.288Z,7.43
2023-03-07T00:11:29.468Z,7.33
2023-03-07T00:13:56.453Z,7.49
2023-03-07T00:16:24.658Z,7.56
2023-03-07T00:18:51.933Z,7.54
2023-03-07T00:21:22.053Z,7.63
2023-03-07T00:23:52.169Z,7.66
2023-03-07T00:26:22.022Z,7.68
2023-03-07T00:28:51.309Z,7.66
2023-03-07T00:31:19.824Z,7.68
2023-03-07T00:33:47.845Z,7.66
2023-03-07T00:36:17.967Z,7.72
2023-03-07T00:38:45.714Z,7.75
2023-03-07T00:41:15.445Z,7.74
2023-03-07T00:43:42.551Z,7.69
2023-03-07T00:46:10.120Z,7.62
2023-03-07T00:48:39.222Z,7.71
2023-03-07T00:51:08.513Z,7.75
2023-03-07T00:53:35.789Z,7.74
2023-03-07T00:56:06.823Z,7.75
2023-03-07T00:58:37.074Z,7.75
2023-03-07T01:01:06.168Z,7.71
2023-03-07T01:03:34.272Z,7.70
2023-03-07T01:06:29.032Z,7.82
2023-03-07T01:08:59.349Z,7.73
2023-03-07T01:11:28.828Z,7.73
2023-03-07T01:13:58.366Z,7.68
2023-03-07T01:16:30.710Z,7.36
2023-03-07T01:19:00.878Z,7.54
2023-03-07T01:21:30.939Z,7.54
2023-03-07T01:24:01.644Z,7.40
2023-03-07T01:26:31.166Z,7.49
2023-03-07T01:29:01.782Z,7.53
2023-03-07T01:31:32.527Z,7.45
2023-03-07T01:34:02.408Z,7.60
2023-03-07T01:36:34.096Z,7.68
2023-03-07T01:39:10.329Z,7.72
2023-03-07T01:41:40.968Z,7.76
2023-03-07T01:44:21.497Z,7.84
2023-03-07T01:46:48.778Z,7.88
2023-03-07T01:49:27.912Z,7.86
2023-03-07T01:52:12.457Z,7.82
2023-03-07T01:54:49.096Z,7.79
2023-03-07T01:57:22.990Z,7.71
2023-03-07T01:59:54.899Z,7.75
2023-03-07T02:02:22.997Z,7.71
2023-03-07T02:05:00.124Z,7.72
2023-03-07T02:07:31.879Z,7.74
2023-03-07T02:10:01.341Z,7.51
2023-03-07T02:12:30.775Z,7.42
2023-03-07T02:14:57.914Z,7.67
2023-03-07T02:17:25.431Z,7.71
2023-03-07T02:20:29.881Z,7.84
2023-03-07T02:22:57.302Z,7.79
2023-03-07T02:25:52.039Z,7.79
2023-03-07T02:28:20.712Z,7.76
2023-03-07T02:30:59.131Z,7.74
2023-03-07T02:33:28.953Z,7.72
2023-03-07T02:36:09.252Z,7.77
2023-03-07T02:38:43.126Z,7.75
2023-03-07T02:41:13.054Z,7.78
2023-03-07T02:43:40.204Z,7.71
2023-03-07T02:46:08.513Z,7.72
2023-03-07T02:48:35.412Z,7.66
2023-03-07T02:51:02.788Z,7.69
2023-03-07T02:53:29.759Z,7.67
2023-03-07T02:55:56.663Z,7.61
2023-03-07T02:58:23.559Z,7.72
2023-03-07T03:00:50.744Z,7.81
2023-03-07T03:03:17.799Z,7.77
2023-03-07T03:05:44.746Z,7.83
2023-03-07T03:08:12.732Z,7.80
2023-03-07T03:10:40.079Z,7.88
2023-03-07T03:13:07.547Z,7.81
2023-03-07T03:15:35.090Z,7.85
2023-03-07T03:18:02.085Z,7.89
2023-03-07T03:20:30.382Z,7.88
2023-03-07T03:22:57.479Z,7.88
2023-03-07T03:25:25.233Z,7.89
2023-03-07T03:27:52.322Z,7.81
2023-03-07T03:30:19.250Z,7.87
2023-03-07T03:32:47.198Z,7.80
2023-03-07T03:35:16.304Z,7.80
2023-03-07T03:37:44.245Z,7.72
2023-03-07T03:40:14.854Z,7.90
2023-03-07T03:42:44.800Z,7.87
2023-03-07T03:45:15.057Z,7.87
2023-03-07T03:47:42.194Z,7.79
2023-03-07T03:50:10.400Z,7.54
2023-03-07T03:52:37.364Z,7.82
2023-03-07T03:55:05.670Z,7.78
2023-03-07T03:57:32.573Z,7.66
2023-03-07T03:59:59.509Z,7.71
2023-03-07T04:02:27.033Z,7.72
2023-03-07T04:04:54.244Z,7.81
2023-03-07T04:07:22.296Z,7.84
2023-03-07T04:09:50.028Z,7.77
2023-03-07T04:12:17.141Z,7.83
2023-03-07T04:15:02.889Z,7.82
2023-03-07T04:17:31.556Z,7.78
2023-03-07T04:19:58.620Z,7.84
2023-03-07T04:22:25.949Z,7.84
2023-03-07T04:24:54.258Z,7.86
2023-03-07T04:27:21.110Z,7.82
2023-03-07T04:29:48.204Z,7.79
2023-03-07T04:32:20.950Z,7.75
2023-03-07T04:34:49.397Z,7.74
2023-03-07T04:37:16.208Z,7.66
2023-03-07T04:39:43.613Z,7.61
2023-03-07T04:42:11.199Z,7.64
2023-03-07T04:44:38.152Z,7.62
2023-03-07T04:47:05.304Z,7.59
2023-03-07T04:49:35.494Z,7.62
2023-03-07T04:52:05.556Z,7.60
2023-03-07T04:54:32.939Z,7.45
2023-03-07T04:57:01.645Z,7.46
2023-03-07T04:59:28.729Z,7.67
2023-03-07T05:01:55.838Z,7.74
2023-03-07T05:04:23.121Z,7.71
2023-03-07T05:06:50.047Z,7.78
2023-03-07T05:09:17.348Z,7.75
2023-03-07T05:11:44.953Z,7.75
2023-03-07T05:14:13.130Z,7.79
2023-03-07T05:16:40.104Z,7.79
2023-03-07T05:19:08.374Z,7.85
2023-03-07T05:21:35.363Z,8.00
2023-03-07T05:24:02.648Z,7.98
2023-03-07T05:26:30.995Z,7.98
2023-03-07T05:28:57.846Z,8.16
2023-03-07T05:31:24.888Z,8.08
2023-03-07T05:33:52.005Z,8.19
2023-03-07T05:36:18.973Z,8.17
2023-03-07T05:38:45.948Z,8.28
2023-03-07T05:41:13.048Z,8.31
2023-03-07T05:43:40.393Z,7.99
2023-03-07T05:46:07.698Z,8.34
2023-03-07T05:48:35.951Z,8.42
2023-03-07T05:51:02.884Z,8.49
2023-03-07T05:53:31.075Z,8.55
2023-03-07T05:55:58.584Z,8.53
2023-03-07T05:58:26.320Z,8.55
2023-03-07T06:00:53.856Z,8.58
2023-03-07T06:03:21.443Z,8.68
2023-03-07T06:05:52.043Z,8.70
2023-03-07T06:08:19.102Z,8.80
2023-03-07T06:10:50.927Z,8.73
2023-03-07T06:13:20.692Z,8.98
2023-03-07T06:15:52.215Z,9.02
2023-03-07T06:18:21.725Z,9.09
2023-03-07T06:21:00.136Z,8.95
2023-03-07T06:23:32.487Z,9.36
2023-03-07T06:26:01.539Z,9.47
2023-03-07T06:28:29.569Z,9.62
2023-03-07T06:30:57.376Z,9.79
2023-03-07T06:33:24.687Z,9.93
2023-03-07T06:35:51.847Z,10.12
2023-03-07T06:38:19.164Z,10.25
2023-03-07T06:40:46.052Z,10.34
2023-03-07T06:43:13.290Z,10.45
2023-03-07T06:45:40.417Z,10.43
2023-03-07T06:48:08.407Z,10.51
2023-03-07T06:50:35.935Z,10.51
2023-03-07T06:53:04.334Z,10.59
2023-03-07T06:55:31.764Z,10.66
2023-03-07T06:57:58.784Z,10.83
2023-03-07T07:00:25.967Z,10.94
2023-03-07T07:02:53.162Z,10.98
2023-03-07T07:05:20.669Z,11.26
2023-03-07T07:07:47.790Z,11.38
2023-03-07T07:10:14.704Z,11.31
2023-03-07T07:12:42.034Z,11.37
2023-03-07T07:15:09.801Z,11.31
2023-03-07T07:17:36.938Z,11.69
2023-03-07T07:20:05.468Z,11.65
2023-03-07T07:22:34.363Z,11.79
2023-03-07T07:25:01.312Z,11.77
2023-03-07T07:27:30.250Z,11.76
2023-03-07T07:29:57.560Z,11.66
2023-03-07T07:32:24.671Z,11.84
2023-03-07T07:34:52.416Z,11.97
2023-03-07T07:37:19.307Z,11.95
2023-03-07T07:39:46.453Z,12.05
2023-03-07T07:42:13.496Z,12.09
2023-03-07T07:44:54.013Z,12.18
2023-03-07T07:47:21.180Z,12.14
2023-03-07T07:49:48.097Z,12.08
2023-03-07T07:52:15.145Z,12.06
2023-03-07T07:54:42.231Z,12.17
2023-03-07T07:57:09.274Z,12.24
2023-03-07T07:59:36.745Z,12.32
2023-03-07T08:02:06.034Z,12.14
2023-03-07T08:04:33.038Z,12.18
2023-03-07T08:07:00.350Z,12.36
2023-03-07T08:09:27.226Z,12.60
2023-03-07T08:11:54.512Z,12.79
2023-03-07T08:14:21.395Z,13.10
2023-03-07T08:16:48.297Z,12.95
2023-03-07T08:19:15.388Z,13.13
2023-03-07T08:21:42.254Z,12.98
2023-03-07T08:24:09.239Z,12.92
2023-03-07T08:26:36.101Z,13.01
2023-03-07T08:29:03.610Z,12.95
2023-03-07T08:31:30.675Z,12.87
2023-03-07T08:33:57.570Z,12.82
2023-03-07T08:36:24.541Z,12.89
2023-03-07T08:38:52.304Z,12.97
2023-03-07T08:41:21.265Z,12.89
2023-03-07T08:43:48.556Z,12.91
2023-03-07T08:46:15.589Z,12.80
2023-03-07T08:48:43.031Z,12.95
2023-03-07T08:51:15.024Z,13.13
2023-03-07T08:53:46.329Z,13.49
2023-03-07T08:56:17.203Z,13.76
2023-03-07T08:58:44.555Z,14.26
2023-03-07T09:01:13.160Z,14.45
2023-03-07T09:03:40.118Z,14.07
2023-03-07T09:06:07.255Z,14.21
2023-03-07T09:08:34.338Z,14.42
2023-03-07T09:11:03.690Z,14.61
2023-03-07T09:13:33.066Z,14.50
2023-03-07T09:16:04.819Z,14.02
2023-03-07T09:18:32.071Z,14.09
2023-03-07T09:21:00.313Z,14.17
2023-03-07T09:23:27.696Z,14.17
2023-03-07T09:25:54.741Z,13.84
2023-03-07T09:28:21.528Z,13.57
2023-03-07T09:30:48.450Z,13.64
2023-03-07T09:33:15.336Z,13.61
2023-03-07T09:35:42.279Z,13.56
2023-03-07T09:38:10.453Z,13.70
2023-03-07T09:40:38.076Z,13.64
2023-03-07T09:43:19.417Z,13.48
2023-03-07T09:46:21.496Z,13.64
2023-03-07T09:49:00.647Z,13.62
2023-03-07T09:51:40.938Z,13.53
2023-03-07T09:54:13.992Z,13.64
2023-03-07T09:56:54.817Z,13.71
2023-03-07T09:59:42.213Z,13.78
2023-03-07T10:02:41.015Z,13.90
2023-03-07T10:05:23.578Z,14.15
2023-03-07T10:07:51.689Z,14.29
2023-03-07T10:10:27.159Z,14.15
2023-03-07T10:13:12.803Z,14.13
2023-03-07T10:15:48.824Z,13.91
2023-03-07T10:18:40.705Z,13.96
2023-03-07T10:21:21.782Z,14.22
2023-03-07T10:24:08.104Z,14.33
2023-03-07T10:26:47.763Z,14.02
2023-03-07T10:29:18.702Z,14.24
2023-03-07T10:31:55.149Z,14.42
2023-03-07T10:34:30.164Z,14.70
2023-03-07T10:37:09.022Z,14.91
2023-03-07T10:39:44.772Z,15.03
2023-03-07T10:42:14.896Z,15.00
2023-03-07T10:44:42.377Z,15.23
2023-03-07T10:47:19.414Z,15.62
2023-03-07T10:49:48.490Z,15.73
2023-03-07T10:52:15.775Z,15.81
2023-03-07T10:54:42.703Z,15.80
2023-03-07T10:57:09.950Z,16.07
2023-03-07T10:59:45.783Z,16.10
2023-03-07T11:02:21.709Z,16.28
2023-03-07T11:04:48.751Z,16.31
2023-03-07T11:07:29.690Z,16.68
2023-03-07T11:09:58.841Z,17.02
2023-03-07T11:12:29.145Z,17.14
2023-03-07T11:15:08.905Z,17.12
2023-03-07T11:17:45.034Z,17.34
2023-03-07T11:20:25.682Z,17.56
2023-03-07T11:23:17.340Z,17.38
2023-03-07T11:25:44.785Z,17.08
2023-03-07T11:28:33.728Z,17.07
2023-03-07T11:31:30.343Z,17.01
2023-03-07T11:34:08.871Z,16.83
2023-03-07T11:36:36.912Z,16.68
2023-03-07T11:39:30.878Z,16.26
2023-03-07T11:42:04.490Z,16.03
2023-03-07T11:44:51.510Z,16.38
2023-03-07T11:47:44.556Z,16.18
2023-03-07T11:50:25.760Z,16.03
2023-03-07T11:53:17.572Z,16.12
2023-03-07T11:56:05.953Z,16.29
2023-03-07T11:58:51.634Z,16.56
2023-03-07T12:01:35.682Z,16.65
2023-03-07T12:04:24.264Z,16.79
2023-03-07T12:07:00.164Z,16.74
2023-03-07T12:09:35.999Z,16.72
2023-03-07T12:12:28.982Z,16.84
2023-03-07T12:15:33.548Z,16.89
2023-03-07T12:18:21.948Z,16.88
2023-03-07T12:21:03.827Z,16.81
2023-03-07T12:23:36.306Z,16.60
2023-03-07T12:26:15.289Z,16.41
2023-03-07T12:28:52.587Z,16.47
2023-03-07T12:31:48.113Z,16.35
2023-03-07T12:35:05.161Z,16.60
2023-03-07T12:37:45.985Z,16.96
2023-03-07T12:40:21.040Z,17.12
2023-03-07T12:43:07.777Z,17.11
2023-03-07T12:45:51.284Z,17.15
2023-03-07T12:48:26.327Z,17.37
2023-03-07T12:51:07.002Z,17.48
2023-03-07T12:53:53.680Z,17.46
2023-03-07T12:56:34.248Z,17.52
2023-03-07T12:59:12.810Z,17.42
2023-03-07T13:01:52.069Z,17.45
2023-03-07T13:04:43.294Z,17.53
2023-03-07T13:07:18.372Z,17.41
2023-03-07T13:09:47.520Z,17.27
2023-03-07T13:12:20.259Z,17.37
2023-03-07T13:15:27.861Z,17.42
2023-03-07T13:17:57.147Z,17.34
2023-03-07T13:20:38.364Z,17.36
2023-03-07T13:23:34.131Z,17.35
2023-03-07T13:26:05.077Z,17.36
2023-03-07T13:28:42.551Z,17.38
2023-03-07T13:31:15.860Z,17.38
2023-03-07T13:33:43.812Z,17.41
2023-03-07T13:36:38.721Z,17.71
2023-03-07T13:39:38.452Z,17.77
2023-03-07T13:42:25.520Z,17.74
2023-03-07T13:44:52.597Z,17.66
2023-03-07T13:47:44.246Z,17.69
2023-03-07T13:50:36.244Z,17.83
2023-03-07T13:53:18.821Z,17.89
2023-03-07T13:56:19.984Z,17.89
2023-03-07T13:58:59.219Z,17.97
2023-03-07T14:01:59.349Z,17.95
2023-03-07T14:04:54.223Z,17.87
2023-03-07T14:07:24.705Z,17.94
2023-03-07T14:10:23.339Z,17.81
2023-03-07T14:13:05.771Z,17.92
2023-03-07T14:15:55.923Z,18.01
2023-03-07T14:18:54.541Z,18.26
2023-03-07T14:21:41.352Z,18.20
2023-03-07T14:24:31.348Z,18.19
2023-03-07T14:27:03.674Z,18.14
2023-03-07T14:29:31.130Z,18.06
2023-03-07T14:32:00.659Z,17.88
2023-03-07T14:34:32.154Z,17.77
2023-03-07T14:37:07.652Z,17.62
2023-03-07T14:39:49.821Z,17.49
2023-03-07T14:42:50.904Z,17.36
2023-03-07T14:45:23.609Z,17.10
2023-03-07T14:48:17.067Z,17.11
2023-03-07T14:50:44.841Z,16.92
2023-03-07T14:53:25.773Z,16.68
2023-03-07T14:55:55.128Z,16.56
2023-03-07T14:59:10.840Z,16.49
2023-03-07T15:01:42.849Z,16.43
2023-03-07T15:04:29.667Z,16.48
2023-03-07T15:07:00.109Z,16.45
2023-03-07T15:09:28.670Z,16.40
2023-03-07T15:12:12.783Z,16.28
2023-03-07T15:14:56.312Z,16.07
2023-03-07T15:17:32.894Z,16.03
2023-03-07T15:20:07.712Z,16.03
2023-03-07T15:22:39.689Z,15.89
2023-03-07T15:25:18.647Z,15.85
2023-03-07T15:27:45.869Z,15.76
2023-03-07T15:30:25.411Z,15.66
2023-03-07T15:33:10.738Z,15.54
2023-03-07T15:35:38.133Z,15.40
2023-03-07T15:38:26.054Z,15.35
2023-03-07T15:40:53.303Z,15.29
2023-03-07T15:43:23.581Z,15.15
2023-03-07T15:46:17.382Z,15.07
2023-03-07T15:48:50.348Z,14.68
2023-03-07T15:51:20.293Z,14.81
2023-03-07T15:54:18.448Z,14.66
2023-03-07T15:56:46.349Z,14.56
2023-03-07T15:59:23.835Z,14.38
2023-03-07T16:01:50.900Z,14.23
2023-03-07T16:04:37.988Z,14.08
2023-03-07T16:07:07.737Z,13.98
2023-03-07T16:09:34.959Z,13.84
2023-03-07T16:12:02.022Z,13.72
2023-03-07T16:14:31.816Z,13.69
2023-03-07T16:17:02.416Z,13.45
2023-03-07T16:19:29.890Z,13.44
2023-03-07T16:21:57.025Z,13.32
2023-03-07T16:24:23.960Z,13.31
2023-03-07T16:26:51.150Z,12.92
2023-03-07T16:29:22.912Z,12.94
2023-03-07T16:31:49.981Z,12.97
2023-03-07T16:34:21.894Z,13.06
2023-03-07T16:36:48.792Z,12.96
2023-03-07T16:39:18.040Z,12.87
2023-03-07T16:41:46.909Z,12.82
2023-03-07T16:44:21.569Z,12.64
2023-03-07T16:46:57.537Z,12.69
2023-03-07T16:49:24.492Z,12.64
2023-03-07T16:52:04.773Z,12.62
2023-03-07T16:54:32.641Z,12.52
2023-03-07T16:57:01.788Z,12.51
2023-03-07T16:59:36.569Z,12.30
2023-03-07T17:02:16.132Z,12.43
2023-03-07T17:04:44.410Z,12.36
2023-03-07T17:07:19.752Z,12.40
2023-03-07T17:09:46.842Z,12.32
2023-03-07T17:12:14.478Z,12.31
2023-03-07T17:14:42.693Z,12.24
2023-03-07T17:17:21.155Z,12.18
2023-03-07T17:19:48.182Z,12.09
2023-03-07T17:22:15.161Z,12.15
2023-03-07T17:24:42.274Z,11.98
2023-03-07T17:27:09.626Z,12.00
2023-03-07T17:29:43.768Z,11.80
2023-03-07T17:32:11.153Z,11.97
2023-03-07T17:34:38.563Z,11.96
2023-03-07T17:37:06.171Z,11.90
2023-03-07T17:39:34.436Z,11.87
2023-03-07T17:42:02.112Z,11.84
2023-03-07T17:44:29.969Z,11.80
2023-03-07T17:46:58.452Z,11.68
2023-03-07T17:49:28.834Z,11.74
2023-03-07T17:51:55.785Z,11.67
2023-03-07T17:54:22.650Z,11.58
2023-03-07T17:56:50.297Z,11.57
2023-03-07T17:59:17.388Z,11.54
2023-03-07T18:01:44.540Z,11.24
2023-03-07T18:04:14.847Z,11.57
2023-03-07T18:06:41.959Z,11.51
2023-03-07T18:09:09.311Z,11.50
2023-03-07T18:11:36.723Z,11.21
2023-03-07T18:14:03.816Z,11.49
2023-03-07T18:16:31.006Z,11.42
2023-03-07T18:19:00.218Z,11.33
2023-03-07T18:21:29.918Z,11.29
2023-03-07T18:23:57.758Z,11.36
2023-03-07T18:26:24.829Z,11.35
2023-03-07T18:28:53.859Z,11.36
2023-03-07T18:31:25.076Z,11.19
2023-03-07T18:33:53.301Z,11.21
2023-03-07T18:36:24.569Z,11.36
2023-03-07T18:38:52.459Z,11.32
2023-03-07T18:41:24.571Z,11.35
2023-03-07T18:43:53.418Z,11.32
2023-03-07T18:46:21.726Z,11.35
2023-03-07T18:48:49.300Z,11.18
2023-03-07T18:51:19.580Z,11.34
2023-03-07T18:53:46.864Z,11.05
2023-03-07T18:56:15.999Z,11.16
2023-03-07T18:58:43.777Z,11.15
2023-03-07T19:01:13.671Z,11.19
2023-03-07T19:03:41.325Z,11.17
2023-03-07T19:06:09.712Z,11.18
2023-03-07T19:08:36.960Z,11.14
2023-03-07T19:11:05.580Z,10.81
2023-03-07T19:13:33.426Z,11.12
2023-03-07T19:16:06.355Z,10.91
2023-03-07T19:18:34.002Z,10.96
2023-03-07T19:21:09.121Z,10.90
2023-03-07T19:23:36.443Z,10.92
2023-03-07T19:26:05.955Z,10.80
2023-03-07T19:28:33.262Z,10.89
2023-03-07T19:31:15.171Z,10.76
2023-03-07T19:33:42.875Z,10.80
2023-03-07T19:36:12.578Z,10.79
2023-03-07T19:38:40.015Z,10.81
2023-03-07T19:41:11.607Z,10.80
2023-03-07T19:43:38.896Z,10.79
2023-03-07T19:46:08.863Z,10.75
2023-03-07T19:48:36.266Z,10.64
2023-03-07T19:51:04.274Z,10.74
2023-03-07T19:53:31.436Z,10.75
2023-03-07T19:56:08.884Z,10.68
2023-03-07T19:58:37.312Z,10.78
2023-03-07T20:01:09.445Z,10.67
2023-03-07T20:03:37.112Z,10.69
2023-03-07T20:06:05.176Z,10.69
2023-03-07T20:08:33.645Z,10.65
2023-03-07T20:11:11.866Z,10.67
2023-03-07T20:13:40.173Z,10.56
2023-03-07T20:16:10.301Z,10.53
2023-03-07T20:18:38.450Z,10.42
2023-03-07T20:21:10.722Z,10.37
2023-03-07T20:23:39.811Z,10.26
2023-03-07T20:26:09.723Z,10.06
2023-03-07T20:28:37.364Z,9.95
2023-03-07T20:31:08.837Z,9.85
2023-03-07T20:33:40.353Z,9.77
2023-03-07T20:36:13.128Z,9.78
2023-03-07T20:38:40.172Z,9.56
2023-03-07T20:41:10.462Z,9.71
2023-03-07T20:43:38.540Z,9.63
2023-03-07T20:46:08.112Z,9.62
2023-03-07T20:48:35.680Z,9.53
2023-03-07T20:51:06.758Z,8.96
2023-03-07T20:53:34.091Z,9.38
2023-03-07T20:56:05.209Z,9.39
2023-03-07T20:58:32.938Z,9.41
2023-03-07T21:01:00.845Z,9.24
2023-03-07T21:03:28.539Z,9.41
2023-03-07T21:06:00.533Z,9.19
2023-03-07T21:08:30.496Z,9.20
2023-03-07T21:10:59.029Z,9.15
2023-03-07T21:13:27.246Z,9.14
2023-03-07T21:15:56.164Z,9.07
2023-03-07T21:18:23.956Z,9.07
2023-03-07T21:20:52.082Z,8.94
2023-03-07T21:23:19.426Z,8.94
2023-03-07T21:25:47.255Z,8.78
2023-03-07T21:28:14.184Z,8.85
2023-03-07T21:30:41.279Z,8.74
2023-03-07T21:33:08.217Z,8.66
2023-03-07T21:35:39.291Z,8.71
2023-03-07T21:38:06.381Z,8.61
2023-03-07T21:40:33.704Z,8.59
2023-03-07T21:43:00.820Z,8.59
2023-03-07T21:45:27.743Z,8.51
2023-03-07T21:47:54.789Z,8.10
2023-03-07T21:50:21.717Z,8.39
2023-03-07T21:52:48.911Z,8.42
2023-03-07T21:55:16.595Z,8.31
2023-03-07T21:57:43.807Z,8.18
2023-03-07T22:00:15.902Z,8.22
2023-03-07T22:02:46.274Z,8.23
2023-03-07T22:05:13.391Z,8.16
2023-03-07T22:07:40.280Z,8.11
2023-03-07T22:10:08.245Z,8.13
2023-03-07T22:12:35.096Z,8.09
2023-03-07T22:15:01.950Z,7.98
2023-03-07T22:17:30.796Z,7.99
2023-03-07T22:19:57.756Z,7.92
2023-03-07T22:22:24.754Z,7.91
2023-03-07T22:24:52.344Z,7.92
2023-03-07T22:27:19.935Z,7.95
2023-03-07T22:29:47.186Z,7.91
2023-03-07T22:32:14.185Z,7.69
2023-03-07T22:34:41.178Z,7.80
2023-03-07T22:37:08.134Z,7.65
2023-03-07T22:39:35.158Z,7.57
2023-03-07T22:42:02.035Z,7.68
2023-03-07T22:44:29.034Z,7.08
2023-03-07T22:46:57.170Z,7.62
2023-03-07T22:49:24.069Z,7.57
2023-03-07T22:51:50.975Z,7.43
2023-03-07T22:54:17.802Z,7.55
2023-03-07T22:56:44.767Z,7.48
2023-03-07T22:59:11.968Z,7.52
2023-03-07T23:01:38.852Z,7.49
2023-03-07T23:04:08.656Z,7.32
2023-03-07T23:06:36.959Z,7.25
2023-03-07T23:09:05.857Z,7.35
2023-03-07T23:11:33.653Z,7.39
2023-03-07T23:14:00.897Z,7.43
2023-03-07T23:16:29.978Z,7.26
2023-03-07T23:18:58.094Z,7.32
2023-03-07T23:21:29.191Z,7.28
2023-03-07T23:23:56.436Z,7.24
2023-03-07T23:26:26.302Z,7.17
2023-03-07T23:28:54.361Z,7.04
2023-03-07T23:31:31.114Z,7.16
2023-03-07T23:34:00.550Z,6.71
2023-03-07T23:36:29.747Z,7.08
2023-03-07T23:38:57.274Z,7.05
2023-03-07T23:41:24.969Z,6.99
2023-03-07T23:43:53.655Z,6.97
2023-03-07T23:46:21.397Z,6.96
2023-03-07T23:48:48.516Z,6.85
2023-03-07T23:51:16.629Z,6.90
2023-03-07T23:53:43.755Z,6.86
2023-03-07T23:56:11.861Z,6.85
2023-03-07T23:58:39.248Z,6.76
